Time,TemperatureF,DewpointF,PressureIn,WindDirection,WindDirectionDegrees,WindSpeedMPH,WindSpeedGustMPH,Humidity,HourlyPrecipIn,Conditions,Clouds,dailyrainin,SoftwareType,DateUTC
2013-11-26 00:01:00,32.4,27.2,30.18,NW,315,0.0,7.0,81,0.00,,,0.00,VWS V14.01,2013-11-26 05:01:00,
2013-11-26 00:02:00,32.4,27.2,30.17,NW,315,0.0,7.0,81,0.00,,,0.00,VWS V14.01,2013-11-26 05:02:00,
2013-11-26 00:03:00,32.4,27.2,30.17,NW,306,2.0,7.0,81,0.00,,,0.00,VWS V14.01,2013-11-26 05:03:00,
2013-11-26 00:04:00,32.4,27.2,30.17,NW,306,2.0,7.0,81,0.00,,,0.00,VWS V14.01,2013-11-26 05:04:00,
2013-11-26 00:09:00,32.5,27.3,30.17,NW,306,0.0,7.0,81,0.00,,,0.00,VWS V14.01,2013-11-26 05:09:00,
2013-11-26 00:14:00,32.5,27.6,30.17,NW,306,0.0,7.0,82,0.00,,,0.00,VWS V14.01,2013-11-26 05:14:00,
2013-11-26 00:19:00,32.7,28.1,30.16,South,184,0.0,7.0,83,0.00,,,0.00,VWS V14.01,2013-11-26 05:19:00,
2013-11-26 00:24:00,32.7,28.1,30.16,South,184,0.0,7.0,83,0.00,,,0.00,VWS V14.01,2013-11-26 05:24:00,
2013-11-26 00:29:00,32.7,28.4,30.16,NNW,348,2.0,7.0,84,0.00,,,0.00,VWS V14.01,2013-11-26 05:29:00,
2013-11-26 00:34:00,32.7,28.4,30.15,NNW,348,0.0,7.0,84,0.00,,,0.00,VWS V14.01,2013-11-26 05:34:00,
2013-11-26 00:39:00,32.7,28.4,30.15,NNW,348,2.0,7.0,84,0.00,,,0.00,VWS V14.01,2013-11-26 05:39:00,
2013-11-26 00:44:00,32.7,28.4,30.15,WNW,283,0.0,7.0,84,0.00,,,0.00,VWS V14.01,2013-11-26 05:44:00,
2013-11-26 00:49:00,32.7,28.7,30.15,WNW,283,0.0,7.0,85,0.00,,,0.00,VWS V14.01,2013-11-26 05:49:00,
2013-11-26 00:54:00,32.7,29.0,30.15,WNW,283,0.0,7.0,86,0.00,,,0.00,VWS V14.01,2013-11-26 05:54:00,
2013-11-26 00:59:00,32.8,29.1,30.15,NE,51,0.0,7.0,86,0.00,,,0.00,VWS V14.01,2013-11-26 05:59:00,
2013-11-26 01:04:00,32.9,29.5,30.14,NE,51,0.0,7.0,87,0.00,,,0.00,VWS V14.01,2013-11-26 06:04:00,
2013-11-26 01:09:00,33.1,29.7,30.14,NE,51,0.0,7.0,87,0.00,,,0.00,VWS V14.01,2013-11-26 06:09:00,
2013-11-26 01:14:00,33.2,30.0,30.14,NW,315,0.0,7.0,88,0.00,,,0.00,VWS V14.01,2013-11-26 06:14:00,
2013-11-26 01:19:00,33.4,30.2,30.14,NW,315,0.0,7.0,88,0.00,,,0.00,VWS V14.01,2013-11-26 06:19:00,
2013-11-26 01:24:00,33.5,30.6,30.14,NW,315,0.0,7.0,89,0.00,,,0.00,VWS V14.01,2013-11-26 06:24:00,
2013-11-26 01:29:00,33.5,30.6,30.14,NW,315,0.0,7.0,89,0.00,,,0.00,VWS V14.01,2013-11-26 06:29:00,
2013-11-26 01:34:00,33.4,30.8,30.14,NW,309,1.0,7.0,90,0.00,,,0.00,VWS V14.01,2013-11-26 06:34:00,
2013-11-26 01:39:00,33.4,31.1,30.14,NW,309,0.0,7.0,91,0.00,,,0.00,VWS V14.01,2013-11-26 06:39:00,
2013-11-26 01:45:00,33.5,31.2,30.14,NW,307,0.0,7.0,91,0.00,,,0.00,VWS V14.01,2013-11-26 06:45:00,
2013-11-26 01:50:00,33.7,31.4,30.14,NW,307,0.0,7.0,91,0.01,,,0.01,VWS V14.01,2013-11-26 06:50:00,
2013-11-26 01:55:00,33.7,31.4,30.14,NW,307,0.0,7.0,91,0.01,,,0.01,VWS V14.01,2013-11-26 06:55:00,
2013-11-26 02:00:00,33.8,31.5,30.14,NW,307,0.0,7.0,91,0.01,,,0.01,VWS V14.01,2013-11-26 07:00:00,
2013-11-26 02:05:00,33.8,31.7,30.14,NW,307,0.0,7.0,92,0.01,,,0.01,VWS V14.01,2013-11-26 07:05:00,
2013-11-26 02:10:00,33.8,31.7,30.14,NW,307,0.0,7.0,92,0.02,,,0.02,VWS V14.01,2013-11-26 07:10:00,
2013-11-26 02:15:00,33.8,31.7,30.14,WSW,255,0.0,7.0,92,0.02,,,0.02,VWS V14.01,2013-11-26 07:15:00,
2013-11-26 02:20:00,33.8,31.7,30.14,WSW,256,0.0,7.0,92,0.03,,,0.03,VWS V14.01,2013-11-26 07:20:00,
2013-11-26 02:25:00,33.8,31.7,30.14,WSW,256,0.0,7.0,92,0.03,,,0.03,VWS V14.01,2013-11-26 07:25:00,
2013-11-26 02:30:00,33.8,31.7,30.14,WSW,256,2.0,7.0,92,0.04,,,0.04,VWS V14.01,2013-11-26 07:30:00,
2013-11-26 02:35:00,33.7,31.6,30.13,NE,35,1.0,7.0,92,0.05,,,0.05,VWS V14.01,2013-11-26 07:35:00,
2013-11-26 02:40:00,33.7,31.6,30.13,NE,34,0.0,7.0,92,0.05,,,0.05,VWS V14.01,2013-11-26 07:40:00,
2013-11-26 02:45:00,33.5,31.4,30.13,North,5,0.0,7.0,92,0.06,,,0.06,VWS V14.01,2013-11-26 07:45:00,
2013-11-26 02:50:00,33.5,31.4,30.12,North,5,0.0,7.0,92,0.06,,,0.07,VWS V14.01,2013-11-26 07:50:00,
2013-11-26 02:55:00,33.5,31.7,30.12,North,5,0.0,7.0,93,0.06,,,0.07,VWS V14.01,2013-11-26 07:55:00,
2013-11-26 03:00:00,33.7,31.9,30.12,North,5,0.0,7.0,93,0.07,,,0.08,VWS V14.01,2013-11-26 08:00:00,
2013-11-26 03:05:00,33.7,31.9,30.12,West,260,1.0,7.0,93,0.08,,,0.09,VWS V14.01,2013-11-26 08:05:00,
2013-11-26 03:11:00,33.7,31.9,30.12,West,260,0.0,7.0,93,0.08,,,0.09,VWS V14.01,2013-11-26 08:11:00,
2013-11-26 03:16:00,33.8,32.0,30.12,West,260,0.0,7.0,93,0.07,,,0.09,VWS V14.01,2013-11-26 08:16:00,
2013-11-26 03:21:00,34.0,32.5,30.12,West,260,0.0,7.0,94,0.08,,,0.11,VWS V14.01,2013-11-26 08:21:00,
2013-11-26 03:26:00,34.1,32.6,30.12,West,260,0.0,7.0,94,0.08,,,0.11,VWS V14.01,2013-11-26 08:26:00,
2013-11-26 03:31:00,34.3,32.8,30.12,West,260,0.0,7.0,94,0.08,,,0.11,VWS V14.01,2013-11-26 08:31:00,
2013-11-26 03:36:00,34.3,32.8,30.12,West,260,0.0,7.0,94,0.08,,,0.13,VWS V14.01,2013-11-26 08:36:00,
2013-11-26 03:41:00,34.3,32.8,30.12,West,260,0.0,7.0,94,0.08,,,0.13,VWS V14.01,2013-11-26 08:41:00,
2013-11-26 03:46:00,34.3,32.8,30.12,West,260,0.0,7.0,94,0.09,,,0.14,VWS V14.01,2013-11-26 08:46:00,
2013-11-26 03:51:00,34.3,32.8,30.13,West,260,1.0,7.0,94,0.08,,,0.15,VWS V14.01,2013-11-26 08:51:00,
2013-11-26 03:56:00,34.3,32.8,30.13,West,260,0.0,7.0,94,0.08,,,0.15,VWS V14.01,2013-11-26 08:56:00,
2013-11-26 04:01:00,34.3,33.0,30.13,West,260,0.0,7.0,95,0.10,,,0.17,VWS V14.01,2013-11-26 09:01:00,
2013-11-26 04:06:00,34.3,33.0,30.12,West,260,0.0,7.0,95,0.09,,,0.17,VWS V14.01,2013-11-26 09:06:00,
2013-11-26 04:11:00,34.4,33.1,30.12,West,260,0.0,7.0,95,0.08,,,0.17,VWS V14.01,2013-11-26 09:11:00,
2013-11-26 04:16:00,34.3,33.0,30.12,West,260,0.0,7.0,95,0.09,,,0.18,VWS V14.01,2013-11-26 09:16:00,
2013-11-26 04:21:00,34.3,33.0,30.12,West,260,0.0,7.0,95,0.10,,,0.19,VWS V14.01,2013-11-26 09:21:00,
2013-11-26 04:26:00,34.3,33.0,30.12,West,260,0.0,7.0,95,0.08,,,0.19,VWS V14.01,2013-11-26 09:26:00,
2013-11-26 04:31:00,34.1,32.8,30.12,West,260,0.0,7.0,95,0.08,,,0.19,VWS V14.01,2013-11-26 09:31:00,
2013-11-26 04:36:00,34.1,32.8,30.12,West,260,0.0,7.0,95,0.07,,,0.19,VWS V14.01,2013-11-26 09:36:00,
2013-11-26 04:41:00,34.1,32.8,30.12,West,260,0.0,7.0,95,0.08,,,0.21,VWS V14.01,2013-11-26 09:41:00,
2013-11-26 04:46:00,34.1,32.8,30.10,West,260,0.0,7.0,95,0.08,,,0.21,VWS V14.01,2013-11-26 09:46:00,
2013-11-26 04:52:00,34.1,32.8,30.10,West,260,0.0,7.0,95,0.06,,,0.21,VWS V14.01,2013-11-26 09:52:00,
2013-11-26 04:57:00,34.1,32.8,30.10,West,260,0.0,7.0,95,0.06,,,0.21,VWS V14.01,2013-11-26 09:57:00,
2013-11-26 05:02:00,34.0,32.7,30.10,West,260,0.0,7.0,95,0.06,,,0.21,VWS V14.01,2013-11-26 10:02:00,
2013-11-26 05:07:00,34.0,32.7,30.10,West,260,0.0,7.0,95,0.06,,,0.23,VWS V14.01,2013-11-26 10:07:00,
2013-11-26 05:12:00,34.0,32.7,30.10,West,260,0.0,7.0,95,0.06,,,0.23,VWS V14.01,2013-11-26 10:12:00,
2013-11-26 05:17:00,33.8,32.5,30.10,West,260,0.0,7.0,95,0.06,,,0.23,VWS V14.01,2013-11-26 10:17:00,
2013-11-26 05:22:00,33.8,32.8,30.10,West,260,0.0,7.0,96,0.04,,,0.23,VWS V14.01,2013-11-26 10:22:00,
2013-11-26 05:27:00,33.8,32.8,30.10,West,260,0.0,7.0,96,0.04,,,0.23,VWS V14.01,2013-11-26 10:27:00,
2013-11-26 05:32:00,34.0,33.0,30.09,West,260,1.0,7.0,96,0.06,,,0.25,VWS V14.01,2013-11-26 10:32:00,
2013-11-26 05:37:00,34.1,33.1,30.09,NE,36,0.0,7.0,96,0.06,,,0.25,VWS V14.01,2013-11-26 10:37:00,
2013-11-26 05:42:00,34.4,33.4,30.09,NE,36,0.0,7.0,96,0.06,,,0.25,VWS V14.01,2013-11-26 10:42:00,
2013-11-26 05:47:00,34.6,33.6,30.08,NE,36,0.0,7.0,96,0.04,,,0.25,VWS V14.01,2013-11-26 10:47:00,
2013-11-26 05:52:00,34.7,33.7,30.08,NE,36,0.0,7.0,96,0.06,,,0.27,VWS V14.01,2013-11-26 10:52:00,
2013-11-26 05:57:00,34.9,33.9,30.08,NE,36,0.0,7.0,96,0.06,,,0.27,VWS V14.01,2013-11-26 10:57:00,
2013-11-26 06:02:00,34.9,33.9,30.07,NE,36,0.0,7.0,96,0.06,,,0.27,VWS V14.01,2013-11-26 11:02:00,
2013-11-26 06:07:00,35.0,34.0,30.07,NE,36,0.0,7.0,96,0.04,,,0.27,VWS V14.01,2013-11-26 11:07:00,
2013-11-26 06:12:00,35.2,34.2,30.07,NE,36,0.0,7.0,96,0.05,,,0.28,VWS V14.01,2013-11-26 11:12:00,
2013-11-26 06:17:00,35.2,34.2,30.08,NE,36,0.0,7.0,96,0.05,,,0.28,VWS V14.01,2013-11-26 11:17:00,
2013-11-26 06:22:00,35.3,34.3,30.08,NE,36,0.0,7.0,96,0.06,,,0.29,VWS V14.01,2013-11-26 11:22:00,
2013-11-26 06:27:00,35.3,34.3,30.08,NE,36,0.0,7.0,96,0.06,,,0.29,VWS V14.01,2013-11-26 11:27:00,
2013-11-26 06:32:00,35.3,34.3,30.08,NE,36,0.0,7.0,96,0.05,,,0.30,VWS V14.01,2013-11-26 11:32:00,
2013-11-26 06:38:00,35.3,34.3,30.08,NE,36,0.0,7.0,96,0.06,,,0.31,VWS V14.01,2013-11-26 11:38:00,
2013-11-26 06:43:00,35.3,34.3,30.08,NE,36,0.0,7.0,96,0.06,,,0.31,VWS V14.01,2013-11-26 11:43:00,
2013-11-26 06:48:00,35.5,34.5,30.07,NE,36,0.0,7.0,96,0.07,,,0.32,VWS V14.01,2013-11-26 11:48:00,
2013-11-26 06:53:00,35.6,34.6,30.07,NE,36,0.0,7.0,96,0.05,,,0.32,VWS V14.01,2013-11-26 11:53:00,
2013-11-26 06:58:00,35.8,34.8,30.07,NE,36,0.0,7.0,96,0.06,,,0.33,VWS V14.01,2013-11-26 11:58:00,
2013-11-26 07:03:00,35.9,34.9,30.07,NE,36,0.0,7.0,96,0.06,,,0.33,VWS V14.01,2013-11-26 12:03:00,
2013-11-26 07:08:00,35.9,34.9,30.07,NE,36,0.0,7.0,96,0.07,,,0.34,VWS V14.01,2013-11-26 12:08:00,
2013-11-26 07:13:00,36.0,35.0,30.07,NE,36,0.0,7.0,96,0.07,,,0.35,VWS V14.01,2013-11-26 12:13:00,
2013-11-26 07:18:00,36.2,35.2,30.07,NE,36,0.0,7.0,96,0.07,,,0.35,VWS V14.01,2013-11-26 12:18:00,
2013-11-26 07:23:00,36.2,35.2,30.07,NE,36,0.0,7.0,96,0.07,,,0.36,VWS V14.01,2013-11-26 12:23:00,
2013-11-26 07:28:00,36.2,35.2,30.07,NE,36,0.0,7.0,96,0.07,,,0.36,VWS V14.01,2013-11-26 12:28:00,
2013-11-26 07:33:00,36.2,35.2,30.07,NE,36,0.0,7.0,96,0.07,,,0.37,VWS V14.01,2013-11-26 12:33:00,
2013-11-26 07:38:00,36.3,35.3,30.07,NE,36,0.0,7.0,96,0.07,,,0.38,VWS V14.01,2013-11-26 12:38:00,
2013-11-26 07:43:00,36.3,35.3,30.07,NE,36,0.0,7.0,96,0.07,,,0.38,VWS V14.01,2013-11-26 12:43:00,
2013-11-26 07:48:00,36.3,35.3,30.07,NE,36,0.0,7.0,96,0.07,,,0.39,VWS V14.01,2013-11-26 12:48:00,
2013-11-26 07:53:00,36.3,35.3,30.07,NE,36,0.0,7.0,96,0.08,,,0.40,VWS V14.01,2013-11-26 12:53:00,
2013-11-26 07:58:00,36.3,35.3,30.07,NE,36,0.0,7.0,96,0.07,,,0.40,VWS V14.01,2013-11-26 12:58:00,
2013-11-26 08:03:00,36.3,35.3,30.06,NE,36,0.0,7.0,96,0.08,,,0.41,VWS V14.01,2013-11-26 13:03:00,
2013-11-26 08:08:00,36.2,35.2,30.06,NE,36,0.0,7.0,96,0.07,,,0.41,VWS V14.01,2013-11-26 13:08:00,
2013-11-26 08:13:00,36.2,35.2,30.06,NE,36,0.0,7.0,96,0.07,,,0.42,VWS V14.01,2013-11-26 13:13:00,
2013-11-26 08:18:00,36.3,35.5,30.06,NE,36,0.0,7.0,97,0.09,,,0.44,VWS V14.01,2013-11-26 13:18:00,
2013-11-26 08:24:00,36.5,35.7,30.06,NE,38,0.0,7.0,97,0.10,,,0.45,VWS V14.01,2013-11-26 13:24:00,
2013-11-26 08:29:00,36.3,35.3,30.06,NE,38,0.0,7.0,96,0.10,,,0.46,VWS V14.01,2013-11-26 13:29:00,
2013-11-26 08:34:00,36.0,35.0,30.04,NE,38,2.0,7.0,96,0.10,,,0.47,VWS V14.01,2013-11-26 13:34:00,
2013-11-26 08:39:00,36.2,35.4,30.04,NE,38,0.0,7.0,97,0.12,,,0.49,VWS V14.01,2013-11-26 13:39:00,
2013-11-26 08:44:00,36.3,35.5,30.04,NE,38,0.0,7.0,97,0.13,,,0.51,VWS V14.01,2013-11-26 13:44:00,
2013-11-26 08:49:00,36.8,36.0,30.03,NE,38,0.0,7.0,97,0.16,,,0.55,VWS V14.01,2013-11-26 13:49:00,
2013-11-26 08:54:00,37.2,36.4,30.03,NNW,327,2.0,7.0,97,0.19,,,0.58,VWS V14.01,2013-11-26 13:54:00,
2013-11-26 08:59:00,37.3,36.5,30.03,NNW,327,0.0,7.0,97,0.19,,,0.59,VWS V14.01,2013-11-26 13:59:00,
2013-11-26 09:04:00,37.6,36.8,30.01,NNW,328,0.0,7.0,97,0.20,,,0.61,VWS V14.01,2013-11-26 14:04:00,
2013-11-26 09:09:00,38.3,37.5,30.01,NNW,328,0.0,7.0,97,0.22,,,0.63,VWS V14.01,2013-11-26 14:09:00,
2013-11-26 09:15:00,39.3,38.8,30.01,SE,132,0.0,7.0,98,0.22,,,0.64,VWS V14.01,2013-11-26 14:15:00,
2013-11-26 09:20:00,39.9,39.4,29.99,NE,54,2.0,7.0,98,0.23,,,0.66,VWS V14.01,2013-11-26 14:20:00,
2013-11-26 09:25:00,40.3,39.8,29.99,North,355,0.0,7.0,98,0.23,,,0.67,VWS V14.01,2013-11-26 14:25:00,
2013-11-26 09:30:00,40.5,40.0,29.99,NNE,26,0.0,7.0,98,0.22,,,0.67,VWS V14.01,2013-11-26 14:30:00,
2013-11-26 09:35:00,40.8,40.3,29.97,NNE,26,1.0,7.0,98,0.21,,,0.68,VWS V14.01,2013-11-26 14:35:00,
2013-11-26 09:40:00,41.6,41.1,29.97,West,278,0.0,7.0,98,0.20,,,0.69,VWS V14.01,2013-11-26 14:40:00,
2013-11-26 09:45:00,41.5,41.0,29.97,North,360,0.0,7.0,98,0.21,,,0.71,VWS V14.01,2013-11-26 14:45:00,
2013-11-26 09:50:00,41.8,41.3,29.98,North,355,1.0,7.0,98,0.20,,,0.73,VWS V14.01,2013-11-26 14:50:00,
2013-11-26 09:55:00,41.9,41.4,29.98,North,355,0.0,7.0,98,0.19,,,0.75,VWS V14.01,2013-11-26 14:55:00,
2013-11-26 10:00:00,42.2,41.7,29.98,NNW,330,1.0,7.0,98,0.19,,,0.78,VWS V14.01,2013-11-26 15:00:00,
2013-11-26 10:06:00,42.3,41.8,29.98,NNW,330,0.0,7.0,98,0.20,,,0.80,VWS V14.01,2013-11-26 15:06:00,
2013-11-26 10:11:00,42.8,42.3,29.98,NNW,330,0.0,7.0,98,0.21,,,0.83,VWS V14.01,2013-11-26 15:11:00,
2013-11-26 10:16:00,43.1,42.6,29.98,South,182,2.0,7.0,98,0.22,,,0.85,VWS V14.01,2013-11-26 15:16:00,
2013-11-26 10:21:00,43.2,42.7,29.98,South,180,0.0,7.0,98,0.22,,,0.87,VWS V14.01,2013-11-26 15:21:00,
2013-11-26 10:26:00,43.3,42.8,29.98,NNE,31,0.0,7.0,98,0.23,,,0.89,VWS V14.01,2013-11-26 15:26:00,
2013-11-26 10:31:00,43.3,42.8,29.98,NNE,31,0.0,7.0,98,0.24,,,0.91,VWS V14.01,2013-11-26 15:31:00,
2013-11-26 10:36:00,43.5,43.0,29.97,NNE,31,0.0,7.0,98,0.25,,,0.93,VWS V14.01,2013-11-26 15:36:00,
2013-11-26 10:41:00,43.3,42.8,29.97,NNE,31,0.0,7.0,98,0.26,,,0.95,VWS V14.01,2013-11-26 15:41:00,
2013-11-26 10:46:00,43.3,42.8,29.97,NNE,31,0.0,7.0,98,0.27,,,0.97,VWS V14.01,2013-11-26 15:46:00,
2013-11-26 10:51:00,43.3,42.8,29.96,NNE,31,0.0,7.0,98,0.27,,,0.99,VWS V14.01,2013-11-26 15:51:00,
2013-11-26 10:56:00,42.3,41.5,29.96,NNE,31,0.0,7.0,97,0.29,,,1.02,VWS V14.01,2013-11-26 15:56:00,
2013-11-26 11:01:00,42.9,42.4,29.94,NNE,31,0.0,7.0,98,0.27,,,1.04,VWS V14.01,2013-11-26 16:01:00,
2013-11-26 11:06:00,43.3,42.8,29.94,NNE,31,0.0,7.0,98,0.27,,,1.06,VWS V14.01,2013-11-26 16:06:00,
2013-11-26 11:11:00,43.9,43.4,29.94,NW,321,1.0,7.0,98,0.27,,,1.08,VWS V14.01,2013-11-26 16:11:00,
2013-11-26 11:16:00,44.2,43.7,29.93,NW,321,0.0,7.0,98,0.27,,,1.10,VWS V14.01,2013-11-26 16:16:00,
2013-11-26 11:22:00,44.3,43.8,29.93,NW,321,0.0,7.0,98,0.25,,,1.11,VWS V14.01,2013-11-26 16:22:00,
2013-11-26 11:27:00,44.5,44.0,29.93,NW,321,0.0,7.0,98,0.26,,,1.13,VWS V14.01,2013-11-26 16:27:00,
2013-11-26 11:32:00,44.2,43.7,29.92,NW,321,0.0,7.0,98,0.26,,,1.15,VWS V14.01,2013-11-26 16:32:00,
2013-11-26 11:37:00,43.9,43.4,29.92,NW,321,0.0,7.0,98,0.24,,,1.16,VWS V14.01,2013-11-26 16:37:00,
2013-11-26 11:42:00,43.9,43.4,29.92,NW,321,0.0,7.0,98,0.25,,,1.18,VWS V14.01,2013-11-26 16:42:00,
2013-11-26 11:47:00,43.9,43.4,29.91,NW,321,0.0,7.0,98,0.24,,,1.19,VWS V14.01,2013-11-26 16:47:00,
2013-11-26 11:52:00,43.9,43.4,29.91,NW,321,0.0,7.0,98,0.23,,,1.21,VWS V14.01,2013-11-26 16:52:00,
2013-11-26 11:57:00,44.1,43.6,29.91,NW,321,0.0,7.0,98,0.23,,,1.23,VWS V14.01,2013-11-26 16:57:00,
2013-11-26 12:02:00,44.1,43.6,29.90,NW,321,0.0,7.0,98,0.20,,,1.24,VWS V14.01,2013-11-26 17:02:00,
2013-11-26 12:07:00,44.1,43.6,29.90,NW,321,0.0,7.0,98,0.19,,,1.26,VWS V14.01,2013-11-26 17:07:00,
2013-11-26 12:13:00,44.1,43.6,29.90,NW,321,0.0,7.0,98,0.18,,,1.27,VWS V14.01,2013-11-26 17:13:00,
2013-11-26 12:18:00,44.1,43.6,29.88,NW,321,0.0,7.0,98,0.18,,,1.28,VWS V14.01,2013-11-26 17:18:00,
2013-11-26 12:23:00,44.1,43.6,29.88,East,98,0.0,7.0,98,0.17,,,1.29,VWS V14.01,2013-11-26 17:23:00,
2013-11-26 12:28:00,44.1,43.6,29.88,East,98,0.0,7.0,98,0.18,,,1.31,VWS V14.01,2013-11-26 17:28:00,
2013-11-26 12:33:00,44.2,43.7,29.86,North,355,0.0,7.0,98,0.17,,,1.32,VWS V14.01,2013-11-26 17:33:00,
2013-11-26 12:38:00,44.1,43.6,29.86,North,355,0.0,7.0,98,0.17,,,1.33,VWS V14.01,2013-11-26 17:38:00,
2013-11-26 12:43:00,44.1,43.6,29.86,North,355,0.0,7.0,98,0.16,,,1.34,VWS V14.01,2013-11-26 17:43:00,
2013-11-26 12:48:00,44.1,43.6,29.86,North,355,0.0,7.0,98,0.16,,,1.35,VWS V14.01,2013-11-26 17:48:00,
2013-11-26 12:53:00,44.1,43.6,29.86,North,355,0.0,7.0,98,0.15,,,1.36,VWS V14.01,2013-11-26 17:53:00,
2013-11-26 12:58:00,43.9,43.4,29.86,North,355,0.0,7.0,98,0.14,,,1.37,VWS V14.01,2013-11-26 17:58:00,
2013-11-26 13:03:00,43.9,43.4,29.86,North,355,0.0,7.0,98,0.14,,,1.38,VWS V14.01,2013-11-26 18:03:00,
2013-11-26 13:08:00,44.1,43.6,29.86,North,355,0.0,7.0,98,0.13,,,1.39,VWS V14.01,2013-11-26 18:08:00,
2013-11-26 13:13:00,44.1,43.6,29.86,North,355,0.0,7.0,98,0.13,,,1.40,VWS V14.01,2013-11-26 18:13:00,
2013-11-26 13:19:00,44.2,43.7,29.83,North,355,0.0,7.0,98,0.13,,,1.41,VWS V14.01,2013-11-26 18:19:00,
2013-11-26 13:24:00,44.2,43.7,29.83,North,355,0.0,7.0,98,0.12,,,1.41,VWS V14.01,2013-11-26 18:24:00,
2013-11-26 13:29:00,44.3,43.8,29.83,North,355,0.0,7.0,98,0.11,,,1.42,VWS V14.01,2013-11-26 18:29:00,
2013-11-26 13:34:00,44.5,44.0,29.83,North,355,0.0,7.0,98,0.11,,,1.43,VWS V14.01,2013-11-26 18:34:00,
2013-11-26 13:39:00,44.6,44.1,29.83,North,355,0.0,7.0,98,0.10,,,1.43,VWS V14.01,2013-11-26 18:39:00,
2013-11-26 13:44:00,44.5,44.0,29.83,North,355,0.0,7.0,98,0.10,,,1.44,VWS V14.01,2013-11-26 18:44:00,
2013-11-26 13:49:00,44.5,44.0,29.81,North,355,0.0,7.0,98,0.10,,,1.45,VWS V14.01,2013-11-26 18:49:00,
2013-11-26 13:54:00,44.5,44.0,29.81,North,355,0.0,7.0,98,0.10,,,1.46,VWS V14.01,2013-11-26 18:54:00,
2013-11-26 13:59:00,44.6,44.1,29.81,North,355,0.0,7.0,98,0.10,,,1.47,VWS V14.01,2013-11-26 18:59:00,
2013-11-26 14:04:00,44.6,44.1,29.84,North,355,0.0,7.0,98,0.11,,,1.49,VWS V14.01,2013-11-26 19:04:00,
2013-11-26 14:09:00,44.5,44.0,29.84,North,355,0.0,7.0,98,0.12,,,1.51,VWS V14.01,2013-11-26 19:09:00,
2013-11-26 14:14:00,44.2,43.7,29.84,North,355,0.0,7.0,98,0.13,,,1.53,VWS V14.01,2013-11-26 19:14:00,
2013-11-26 14:19:00,44.2,43.7,29.80,North,355,0.0,7.0,98,0.14,,,1.55,VWS V14.01,2013-11-26 19:19:00,
2013-11-26 14:25:00,44.2,43.7,29.80,North,355,0.0,7.0,98,0.15,,,1.56,VWS V14.01,2013-11-26 19:25:00,
2013-11-26 14:30:00,44.1,43.6,29.80,North,355,0.0,7.0,98,0.14,,,1.56,VWS V14.01,2013-11-26 19:30:00,
2013-11-26 14:35:00,43.8,43.3,29.79,West,273,0.0,7.0,98,0.14,,,1.57,VWS V14.01,2013-11-26 19:35:00,
2013-11-26 14:40:00,43.5,43.0,29.79,West,273,0.0,7.0,98,0.15,,,1.58,VWS V14.01,2013-11-26 19:40:00,
2013-11-26 14:45:00,43.3,42.8,29.79,West,273,0.0,7.0,98,0.15,,,1.59,VWS V14.01,2013-11-26 19:45:00,
2013-11-26 14:50:00,43.2,42.7,29.79,SW,236,1.0,7.0,98,0.16,,,1.61,VWS V14.01,2013-11-26 19:50:00,
2013-11-26 14:55:00,43.1,42.6,29.79,WSW,237,1.0,7.0,98,0.18,,,1.63,VWS V14.01,2013-11-26 19:55:00,
2013-11-26 15:00:00,43.1,42.6,29.79,WSW,237,0.0,7.0,98,0.18,,,1.64,VWS V14.01,2013-11-26 20:00:00,
2013-11-26 15:05:00,43.1,42.6,29.79,WSW,237,0.0,7.0,98,0.17,,,1.65,VWS V14.01,2013-11-26 20:05:00,
2013-11-26 15:10:00,43.2,42.7,29.79,WSW,237,1.0,7.0,98,0.17,,,1.67,VWS V14.01,2013-11-26 20:10:00,
2013-11-26 15:16:00,43.3,42.8,29.79,NNW,338,2.0,7.0,98,0.16,,,1.68,VWS V14.01,2013-11-26 20:16:00,
2013-11-26 15:21:00,43.2,42.7,29.76,NE,51,0.0,7.0,98,0.16,,,1.70,VWS V14.01,2013-11-26 20:21:00,
2013-11-26 15:26:00,43.1,42.6,29.76,West,271,2.0,7.0,98,0.16,,,1.71,VWS V14.01,2013-11-26 20:26:00,
2013-11-26 15:31:00,43.1,42.6,29.76,West,269,0.0,7.0,98,0.16,,,1.72,VWS V14.01,2013-11-26 20:31:00,
2013-11-26 15:36:00,43.1,42.6,29.76,West,267,0.0,7.0,98,0.17,,,1.74,VWS V14.01,2013-11-26 20:36:00,
2013-11-26 15:41:00,43.1,42.6,29.76,West,267,1.0,7.0,98,0.18,,,1.76,VWS V14.01,2013-11-26 20:41:00,
2013-11-26 15:46:00,43.1,42.6,29.76,West,267,0.0,7.0,98,0.20,,,1.78,VWS V14.01,2013-11-26 20:46:00,
2013-11-26 15:52:00,43.1,42.6,29.76,West,267,0.0,7.0,98,0.19,,,1.79,VWS V14.01,2013-11-26 20:52:00,
2013-11-26 15:57:00,43.2,42.7,29.76,West,267,1.0,7.0,98,0.18,,,1.80,VWS V14.01,2013-11-26 20:57:00,
2013-11-26 16:02:00,43.3,42.8,29.75,West,267,1.0,7.0,98,0.17,,,1.81,VWS V14.01,2013-11-26 21:02:00,
2013-11-26 16:07:00,43.5,43.0,29.75,West,261,0.0,7.0,98,0.18,,,1.83,VWS V14.01,2013-11-26 21:07:00,
2013-11-26 16:12:00,43.6,43.1,29.75,West,263,0.0,7.0,98,0.18,,,1.84,VWS V14.01,2013-11-26 21:12:00,
2013-11-26 16:17:00,43.6,43.1,29.71,West,263,0.0,7.0,98,0.18,,,1.85,VWS V14.01,2013-11-26 21:17:00,
2013-11-26 16:22:00,43.8,43.3,29.71,West,263,0.0,7.0,98,0.18,,,1.86,VWS V14.01,2013-11-26 21:22:00,
2013-11-26 16:27:00,43.6,43.1,29.71,West,263,0.0,7.0,98,0.18,,,1.88,VWS V14.01,2013-11-26 21:27:00,
2013-11-26 16:32:00,43.6,43.1,29.71,North,5,2.0,7.0,98,0.20,,,1.91,VWS V14.01,2013-11-26 21:32:00,
2013-11-26 16:37:00,44.1,43.6,29.71,North,11,0.0,7.0,98,0.20,,,1.93,VWS V14.01,2013-11-26 21:37:00,
2013-11-26 16:43:00,44.2,43.7,29.71,WNW,288,0.0,7.0,98,0.18,,,1.95,VWS V14.01,2013-11-26 21:43:00,
2013-11-26 16:48:00,44.1,43.6,29.72,WNW,289,0.0,7.0,98,0.18,,,1.96,VWS V14.01,2013-11-26 21:48:00,
2013-11-26 16:53:00,43.9,43.4,29.72,WNW,289,0.0,7.0,98,0.18,,,1.97,VWS V14.01,2013-11-26 21:53:00,
2013-11-26 16:58:00,43.8,43.3,29.72,WNW,289,0.0,7.0,98,0.18,,,1.98,VWS V14.01,2013-11-26 21:58:00,
2013-11-26 17:03:00,43.8,43.3,29.71,WNW,289,0.0,7.0,98,0.18,,,1.99,VWS V14.01,2013-11-26 22:03:00,
2013-11-26 17:08:00,43.8,43.3,29.71,WNW,289,0.0,7.0,98,0.18,,,2.01,VWS V14.01,2013-11-26 22:08:00,
2013-11-26 17:13:00,43.8,43.3,29.71,WNW,289,0.0,7.0,98,0.17,,,2.01,VWS V14.01,2013-11-26 22:13:00,
2013-11-26 17:18:00,43.9,43.4,29.69,West,271,0.0,7.0,98,0.17,,,2.02,VWS V14.01,2013-11-26 22:18:00,
2013-11-26 17:23:00,43.9,43.4,29.69,West,271,0.0,7.0,98,0.17,,,2.03,VWS V14.01,2013-11-26 22:23:00,
2013-11-26 17:28:00,44.1,43.6,29.69,West,271,0.0,7.0,98,0.15,,,2.03,VWS V14.01,2013-11-26 22:28:00,
2013-11-26 17:33:00,44.1,43.6,29.71,West,271,0.0,7.0,98,0.12,,,2.03,VWS V14.01,2013-11-26 22:33:00,
2013-11-26 17:38:00,44.2,43.7,29.71,West,271,0.0,7.0,98,0.11,,,2.04,VWS V14.01,2013-11-26 22:38:00,
2013-11-26 17:43:00,44.2,43.7,29.71,West,271,0.0,7.0,98,0.11,,,2.05,VWS V14.01,2013-11-26 22:43:00,
2013-11-26 17:48:00,43.8,43.0,29.69,West,271,0.0,7.0,97,0.10,,,2.06,VWS V14.01,2013-11-26 22:48:00,
2013-11-26 17:53:00,43.6,42.8,29.69,West,271,0.0,7.0,97,0.10,,,2.07,VWS V14.01,2013-11-26 22:53:00,
2013-11-26 17:58:00,43.8,43.0,29.69,West,271,0.0,7.0,97,0.09,,,2.07,VWS V14.01,2013-11-26 22:58:00,
2013-11-26 18:03:00,43.9,43.4,29.68,West,271,0.0,7.0,98,0.09,,,2.08,VWS V14.01,2013-11-26 23:03:00,
2013-11-26 18:08:00,43.9,43.1,29.68,West,271,0.0,7.0,97,0.08,,,2.08,VWS V14.01,2013-11-26 23:08:00,
2013-11-26 18:14:00,43.9,43.1,29.68,West,271,0.0,7.0,97,0.07,,,2.08,VWS V14.01,2013-11-26 23:14:00,
2013-11-26 18:19:00,43.9,43.4,29.68,West,271,0.0,7.0,98,0.06,,,2.08,VWS V14.01,2013-11-26 23:19:00,
2013-11-26 18:24:00,43.9,43.1,29.68,West,271,0.0,7.0,97,0.05,,,2.08,VWS V14.01,2013-11-26 23:24:00,
2013-11-26 18:29:00,44.1,43.6,29.68,West,271,0.0,7.0,98,0.05,,,2.08,VWS V14.01,2013-11-26 23:29:00,
2013-11-26 18:34:00,44.1,43.6,29.67,West,271,0.0,7.0,98,0.05,,,2.08,VWS V14.01,2013-11-26 23:34:00,
2013-11-26 18:39:00,43.8,43.0,29.67,West,271,0.0,7.0,97,0.04,,,2.08,VWS V14.01,2013-11-26 23:39:00,
2013-11-26 18:44:00,43.8,43.0,29.67,West,271,0.0,7.0,97,0.03,,,2.08,VWS V14.01,2013-11-26 23:44:00,
2013-11-26 18:49:00,43.8,43.0,29.67,West,271,0.0,7.0,97,0.02,,,2.08,VWS V14.01,2013-11-26 23:49:00,
2013-11-26 18:54:00,43.8,43.0,29.67,West,271,0.0,7.0,97,0.01,,,2.08,VWS V14.01,2013-11-26 23:54:00,
2013-11-26 18:59:00,43.6,42.8,29.67,West,271,0.0,7.0,97,0.01,,,2.08,VWS V14.01,2013-11-26 23:59:00,
2013-11-26 19:04:00,43.8,43.0,29.69,West,271,0.0,7.0,97,0.00,,,2.08,VWS V14.01,2013-11-27 00:04:00,
2013-11-26 19:09:00,43.8,43.0,29.69,West,271,0.0,7.0,97,0.00,,,2.08,VWS V14.01,2013-11-27 00:09:00,
2013-11-26 19:14:00,43.8,43.0,29.69,West,271,0.0,7.0,97,0.00,,,2.08,VWS V14.01,2013-11-27 00:14:00,
2013-11-26 19:19:00,43.6,42.8,29.68,West,271,0.0,7.0,97,0.00,,,2.08,VWS V14.01,2013-11-27 00:19:00,
2013-11-26 19:24:00,43.6,42.8,29.68,West,271,0.0,7.0,97,0.00,,,2.08,VWS V14.01,2013-11-27 00:24:00,
2013-11-26 19:29:00,43.6,42.8,29.68,West,271,0.0,7.0,97,0.00,,,2.08,VWS V14.01,2013-11-27 00:29:00,
2013-11-26 19:34:00,43.9,43.1,29.68,West,271,1.0,7.0,97,0.01,,,2.09,VWS V14.01,2013-11-27 00:34:00,
2013-11-26 19:39:00,44.1,43.3,29.68,North,355,3.0,7.0,97,0.01,,,2.09,VWS V14.01,2013-11-27 00:39:00,
2013-11-26 19:44:00,44.3,43.5,29.68,NNW,343,6.0,7.0,97,0.01,,,2.09,VWS V14.01,2013-11-27 00:44:00,
2013-11-26 19:50:00,44.6,43.8,29.69,NNW,347,5.0,7.0,97,0.01,,,2.09,VWS V14.01,2013-11-27 00:50:00,
2013-11-26 19:55:00,44.8,44.0,29.69,NNW,338,4.0,7.0,97,0.01,,,2.09,VWS V14.01,2013-11-27 00:55:00,
2013-11-26 20:00:00,44.8,44.0,29.69,North,355,0.0,7.0,97,0.01,,,2.09,VWS V14.01,2013-11-27 01:00:00,
2013-11-26 20:05:00,44.8,44.0,29.67,NNW,347,3.0,7.0,97,0.01,,,2.09,VWS V14.01,2013-11-27 01:05:00,
2013-11-26 20:10:00,44.8,44.0,29.67,North,5,5.0,7.0,97,0.01,,,2.09,VWS V14.01,2013-11-27 01:10:00,
2013-11-26 20:15:00,44.9,44.1,29.67,NNW,344,3.0,7.0,97,0.01,,,2.09,VWS V14.01,2013-11-27 01:15:00,
2013-11-26 20:20:00,44.9,44.1,29.66,NNW,340,3.0,7.0,97,0.01,,,2.09,VWS V14.01,2013-11-27 01:20:00,
2013-11-26 20:25:00,44.9,44.1,29.66,NNW,344,4.0,7.0,97,0.01,,,2.09,VWS V14.01,2013-11-27 01:25:00,
2013-11-26 20:30:00,45.1,44.3,29.66,NNW,340,5.0,7.0,97,0.01,,,2.09,VWS V14.01,2013-11-27 01:30:00,
2013-11-26 20:35:00,45.1,44.3,29.67,NW,319,3.0,7.0,97,0.01,,,2.10,VWS V14.01,2013-11-27 01:35:00,
2013-11-26 20:40:00,45.1,44.3,29.67,South,190,2.0,7.0,97,0.01,,,2.10,VWS V14.01,2013-11-27 01:40:00,
2013-11-26 20:45:00,44.9,44.1,29.67,NNW,342,4.0,7.0,97,0.01,,,2.10,VWS V14.01,2013-11-27 01:45:00,
2013-11-26 20:50:00,44.9,44.1,29.66,West,281,1.0,7.0,97,0.01,,,2.10,VWS V14.01,2013-11-27 01:50:00,
2013-11-26 20:55:00,44.8,44.0,29.66,NNW,331,1.0,7.0,97,0.01,,,2.10,VWS V14.01,2013-11-27 01:55:00,
2013-11-26 21:00:00,44.8,44.0,29.66,NNW,346,3.0,7.0,97,0.01,,,2.10,VWS V14.01,2013-11-27 02:00:00,
2013-11-26 21:05:00,44.6,43.8,29.65,NNW,329,5.0,7.0,97,0.01,,,2.10,VWS V14.01,2013-11-27 02:05:00,
2013-11-26 21:10:00,44.6,43.8,29.65,NNW,329,3.0,7.0,97,0.01,,,2.10,VWS V14.01,2013-11-27 02:10:00,
2013-11-26 21:15:00,44.5,43.7,29.65,NNE,15,4.0,7.0,97,0.01,,,2.10,VWS V14.01,2013-11-27 02:15:00,
2013-11-26 21:20:00,44.3,43.5,29.66,NNW,339,4.0,7.0,97,0.01,,,2.10,VWS V14.01,2013-11-27 02:20:00,
2013-11-26 21:26:00,44.2,43.4,29.66,NNW,344,1.0,7.0,97,0.01,,,2.10,VWS V14.01,2013-11-27 02:26:00,
2013-11-26 21:31:00,44.1,43.3,29.66,NW,306,5.0,7.0,97,0.01,,,2.10,VWS V14.01,2013-11-27 02:31:00,
2013-11-26 21:36:00,44.1,43.3,29.66,North,5,3.0,7.0,97,0.01,,,2.10,VWS V14.01,2013-11-27 02:36:00,
2013-11-26 21:41:00,43.9,43.1,29.66,NNW,329,5.0,7.0,97,0.00,,,2.10,VWS V14.01,2013-11-27 02:41:00,
2013-11-26 21:46:00,43.6,42.8,29.66,NNW,336,5.0,7.0,97,0.00,,,2.10,VWS V14.01,2013-11-27 02:46:00,
2013-11-26 21:51:00,43.3,42.5,29.65,WNW,298,5.0,7.0,97,0.00,,,2.10,VWS V14.01,2013-11-27 02:51:00,
2013-11-26 21:56:00,42.9,42.1,29.65,NW,320,9.0,9.0,97,0.00,,,2.10,VWS V14.01,2013-11-27 02:56:00,
2013-11-26 22:01:00,42.8,42.0,29.65,NW,325,8.0,8.0,97,0.00,,,2.10,VWS V14.01,2013-11-27 03:01:00,
2013-11-26 22:06:00,42.6,41.8,29.68,NE,36,2.0,7.0,97,0.00,,,2.10,VWS V14.01,2013-11-27 03:06:00,
2013-11-26 22:11:00,42.5,41.7,29.68,WNW,295,2.0,7.0,97,0.00,,,2.10,VWS V14.01,2013-11-27 03:11:00,
2013-11-26 22:16:00,42.5,41.7,29.68,East,94,1.0,7.0,97,0.00,,,2.10,VWS V14.01,2013-11-27 03:16:00,
2013-11-26 22:21:00,42.3,41.5,29.67,NW,311,2.0,7.0,97,0.00,,,2.10,VWS V14.01,2013-11-27 03:21:00,
2013-11-26 22:26:00,42.2,41.4,29.67,North,355,11.0,11.0,97,0.00,,,2.10,VWS V14.01,2013-11-27 03:26:00,
2013-11-26 22:31:00,42.1,41.0,29.67,ENE,74,4.0,7.0,96,0.01,,,2.11,VWS V14.01,2013-11-27 03:31:00,
2013-11-26 22:36:00,41.8,40.8,29.66,NE,37,1.0,7.0,96,0.01,,,2.11,VWS V14.01,2013-11-27 03:36:00,
2013-11-26 22:41:00,41.5,40.5,29.66,NE,36,3.0,7.0,96,0.01,,,2.11,VWS V14.01,2013-11-27 03:41:00,
2013-11-26 22:46:00,41.2,40.2,29.67,ESE,114,0.0,7.0,96,0.01,,,2.11,VWS V14.01,2013-11-27 03:46:00,
2013-11-26 22:51:00,41.1,40.0,29.67,East,91,3.0,7.0,96,0.02,,,2.12,VWS V14.01,2013-11-27 03:51:00,
2013-11-26 22:56:00,40.9,39.8,29.67,SSW,207,0.0,7.0,96,0.02,,,2.12,VWS V14.01,2013-11-27 03:56:00,
2013-11-26 23:01:00,40.8,39.8,29.67,South,169,0.0,7.0,96,0.02,,,2.12,VWS V14.01,2013-11-27 04:01:00,
2013-11-26 23:06:00,40.6,39.5,29.67,SSE,151,0.0,7.0,96,0.02,,,2.12,VWS V14.01,2013-11-27 04:06:00,
2013-11-26 23:12:00,40.5,39.5,29.67,NW,306,3.0,7.0,96,0.02,,,2.12,VWS V14.01,2013-11-27 04:12:00,
2013-11-26 23:17:00,40.5,39.5,29.69,NNE,30,1.0,7.0,96,0.02,,,2.12,VWS V14.01,2013-11-27 04:17:00,
2013-11-26 23:22:00,40.3,39.2,29.69,WNW,288,0.0,7.0,96,0.02,,,2.12,VWS V14.01,2013-11-27 04:22:00,
2013-11-26 23:27:00,40.1,39.0,29.69,SSE,159,0.0,7.0,96,0.02,,,2.12,VWS V14.01,2013-11-27 04:27:00,
2013-11-26 23:32:00,40.1,39.0,29.67,NNE,32,2.0,7.0,96,0.02,,,2.13,VWS V14.01,2013-11-27 04:32:00,
2013-11-26 23:37:00,39.9,38.8,29.67,SSE,151,1.0,7.0,96,0.02,,,2.13,VWS V14.01,2013-11-27 04:37:00,
2013-11-26 23:42:00,39.8,38.8,29.67,WNW,303,0.0,7.0,96,0.02,,,2.13,VWS V14.01,2013-11-27 04:42:00,
2013-11-26 23:47:00,39.5,38.5,29.69,NNW,336,0.0,7.0,96,0.03,,,2.14,VWS V14.01,2013-11-27 04:47:00,
2013-11-26 23:52:00,39.3,38.3,29.69,NNW,337,0.0,7.0,96,0.03,,,2.14,VWS V14.01,2013-11-27 04:52:00,
2013-11-26 23:57:00,38.9,37.6,29.69,NW,317,2.0,7.0,95,0.02,,,2.14,VWS V14.01,2013-11-27 04:57:00,